Terminal Aerodrome Forecast
Issued by NWS Grand Forks, ND

Home | Current Version | Previous Version | Text Only | Print | Product List | Glossary Off
Versions: 1 2 3 4 5 6 7 8 9 10 11 12 13 14 15 16 17

111
FTUS43 KFGF 191437 AAA
TAFGFK
TAF AMD
KGFK 191437Z 1915/2012 17010KT 1/2SM FZFG OVC003
      TEMPO 1915/1917 2SM BR SCT010
     FM191700 17012KT 4SM BR SCT015
      TEMPO 1917/1918 2SM BR
     FM192200 18010KT P6SM BKN060
     FM200100 18009KT 3SM BR BKN015
     FM200200 18010KT 1 1/2SM BR BKN010=

USA.gov is the U.S. government's official web portal to all federal, state and local government web resources and services.